Time;durP1;ratioP1;P1;durP2;ratioP2;P2;SDS_P1;SDS_P2;PMS_P1;PMS_P2;Temp;Humidity;BMP_temperature;BMP_pressure;BME280_temperature;BME280_humidity;BME280_pressure;Samples;Min_cycle;Max_cycle;Signal;HPM_P1;HPM_P2
2023/10/03 00:00:37;;;;;;;16.33;6.50;;;17.20;99.90;16.50;100478;;;;559404;255;24176;-80
2023/10/03 00:03:07;;;;;;;17.07;7.17;;;17.10;99.90;16.50;100474;;;;551343;256;24160;-81
2023/10/03 00:05:33;;;;;;;11.10;5.83;;;17.10;99.90;16.40;100471;;;;551278;256;24148;-80
2023/10/03 00:08:01;;;;;;;11.27;5.87;;;17.00;99.90;16.30;100469;;;;551389;256;24168;-80
2023/10/03 00:10:29;;;;;;;11.27;6.53;;;17.00;99.90;16.30;100466;;;;551296;256;24145;-80
2023/10/03 00:12:57;;;;;;;10.57;5.90;;;16.90;99.90;16.20;100468;;;;551655;256;24181;-80
2023/10/03 00:15:28;;;;;;;14.00;6.50;;;16.80;99.90;16.20;100458;;;;551618;256;24134;-80
2023/10/03 00:17:52;;;;;;;12.10;6.27;;;16.80;99.90;16.20;100458;;;;551418;255;24133;-80
2023/10/03 00:20:22;;;;;;;9.67;5.93;;;16.80;99.90;16.20;100453;;;;559890;252;24169;-80
2023/10/03 00:22:48;;;;;;;16.10;6.53;;;16.80;99.90;16.20;100440;;;;551505;256;24146;-80
2023/10/03 00:25:21;;;;;;;11.67;6.27;;;16.80;99.90;16.20;100440;;;;551876;254;24138;-79
2023/10/03 00:27:47;;;;;;;11.57;6.93;;;16.80;99.90;16.20;100439;;;;552788;255;24192;-80
2023/10/03 00:30:15;;;;;;;12.47;6.87;;;16.70;99.90;16.10;100435;;;;551858;256;24224;-80
2023/10/03 00:32:42;;;;;;;8.13;5.50;;;16.70;99.90;16.10;100441;;;;552140;256;24180;-79
2023/10/03 00:35:11;;;;;;;12.23;6.67;;;16.70;99.90;16.10;100440;;;;560050;256;24139;-81
2023/10/03 00:37:40;;;;;;;14.43;8.93;;;16.70;99.90;16.10;100437;;;;549365;255;35678;-80
2023/10/03 00:40:28;;;;;;;10.87;7.00;;;16.70;99.90;16.10;100435;;;;551746;256;23170;-80
2023/10/03 00:42:39;;;;;;;13.30;6.87;;;16.70;99.90;16.10;100436;;;;552185;254;24348;-80
2023/10/03 00:45:11;;;;;;;13.63;6.10;;;16.70;99.90;16.20;100431;;;;551997;255;24177;-80
2023/10/03 00:47:35;;;;;;;10.80;6.53;;;16.70;99.90;16.20;100431;;;;552026;256;24146;-81
2023/10/03 00:50:06;;;;;;;13.43;7.07;;;16.80;99.90;16.30;100440;;;;552092;256;24143;-81
2023/10/03 00:52:35;;;;;;;9.47;6.60;;;16.70;99.90;16.30;100441;;;;551996;256;24188;-80
2023/10/03 00:55:03;;;;;;;12.70;6.50;;;16.90;99.90;16.30;100432;;;;552320;256;24148;-79
2023/10/03 00:57:33;;;;;;;14.45;8.52;;;16.90;99.90;16.30;100429;;;;547942;255;35648;-78
2023/10/03 01:00:01;;;;;;;14.43;7.57;;;16.90;99.90;16.30;100425;;;;551514;256;23186;-81
2023/10/03 01:02:27;;;;;;;14.83;7.10;;;16.90;99.90;16.20;100414;;;;559493;256;24153;-80
2023/10/03 01:04:54;;;;;;;9.70;5.67;;;16.80;99.90;16.20;100418;;;;551272;256;24197;-81
2023/10/03 01:07:23;;;;;;;11.40;6.57;;;16.80;99.90;16.10;100417;;;;551315;255;24155;-79
2023/10/03 01:09:49;;;;;;;7.63;5.87;;;16.80;99.90;16.10;100407;;;;551330;256;24147;-80
2023/10/03 01:12:18;;;;;;;11.93;6.43;;;16.70;99.90;16.00;100404;;;;551655;255;24148;-81
2023/10/03 01:14:46;;;;;;;12.67;6.73;;;16.60;99.90;15.90;100397;;;;551303;256;24138;-80
2023/10/03 01:17:15;;;;;;;16.20;8.68;;;16.50;99.90;15.90;100386;;;;546689;255;35731;-81
2023/10/03 01:19:43;;;;;;;10.33;6.97;;;16.50;99.90;15.80;100389;;;;551318;255;24151;-79
2023/10/03 01:22:11;;;;;;;14.67;7.33;;;16.40;99.90;15.70;100386;;;;551327;255;24166;-79
2023/10/03 01:24:38;;;;;;;12.83;7.20;;;16.40;99.90;15.70;100386;;;;551325;256;24195;-79
2023/10/03 01:27:07;;;;;;;11.13;6.67;;;16.20;99.90;15.60;100387;;;;551150;256;24149;-79
2023/10/03 01:29:35;;;;;;;9.87;6.30;;;16.20;99.90;15.50;100385;;;;551426;256;24161;-79
2023/10/03 01:32:06;;;;;;;11.33;6.13;;;16.10;99.90;15.50;100382;;;;559437;252;24168;-79
2023/10/03 01:34:31;;;;;;;14.07;5.90;;;16.10;99.90;15.40;100387;;;;551434;255;24134;-80
2023/10/03 01:36:59;;;;;;;13.77;6.80;;;16.00;99.90;15.40;100390;;;;551858;254;24138;-79
2023/10/03 01:39:30;;;;;;;11.47;6.43;;;16.00;99.90;15.30;100379;;;;560954;255;24124;-80
2023/10/03 01:41:55;;;;;;;10.30;6.37;;;15.90;99.90;15.30;100374;;;;560259;255;24291;-81
2023/10/03 01:44:26;;;;;;;12.80;7.40;;;15.90;99.90;15.20;100377;;;;552453;255;24136;-79
2023/10/03 01:46:51;;;;;;;11.87;7.07;;;15.80;99.90;15.20;100364;;;;552358;255;26477;-81
2023/10/03 01:49:19;;;;;;;14.47;6.50;;;15.80;99.90;15.10;100365;;;;552151;256;24150;-79
2023/10/03 01:51:47;;;;;;;8.57;6.17;;;15.80;99.90;15.10;100364;;;;552233;256;24129;-79
2023/10/03 01:54:15;;;;;;;16.20;7.40;;;15.70;99.90;15.00;100359;;;;552225;255;24133;-81
2023/10/03 01:56:43;;;;;;;12.83;6.53;;;15.70;99.90;15.00;100347;;;;554360;254;24164;-80
2023/10/03 01:59:11;;;;;;;12.10;6.77;;;15.60;99.90;14.90;100344;;;;551974;256;24156;-80
2023/10/03 02:01:39;;;;;;;15.70;7.10;;;15.60;99.90;14.90;100346;;;;551996;256;24232;-80
2023/10/03 02:04:06;;;;;;;10.67;6.87;;;15.50;99.90;14.90;100348;;;;551773;256;24146;-80
2023/10/03 02:06:35;;;;;;;16.25;9.07;;;15.50;99.90;14.90;100337;;;;549583;255;35663;-79
2023/10/03 02:09:03;;;;;;;11.20;7.90;;;15.50;99.90;14.90;100343;;;;552047;256;24149;-79
2023/10/03 02:11:32;;;;;;;13.00;6.80;;;15.50;99.90;14.80;100337;;;;554824;254;24156;-79
2023/10/03 02:13:59;;;;;;;13.43;7.67;;;15.50;99.90;14.80;100332;;;;552365;255;24145;-80
2023/10/03 02:16:28;;;;;;;9.83;6.47;;;15.50;99.90;14.80;100322;;;;552015;256;24147;-80
2023/10/03 02:18:55;;;;;;;10.93;6.93;;;15.50;99.90;14.80;100318;;;;551405;255;24238;-80
2023/10/03 02:21:23;;;;;;;13.53;6.20;;;15.40;99.90;14.80;100313;;;;551131;256;24140;-80
2023/10/03 02:23:50;;;;;;;8.33;6.20;;;15.40;99.90;14.70;100309;;;;551356;256;24171;-79
2023/10/03 02:26:18;;;;;;;13.33;6.77;;;15.40;99.90;14.70;100294;;;;551295;256;24166;-80
2023/10/03 02:28:46;;;;;;;11.33;6.83;;;15.30;99.90;14.60;100287;;;;551397;256;24145;-80
2023/10/03 02:31:17;;;;;;;12.77;6.93;;;15.30;99.90;14.60;100287;;;;551324;256;24188;-79
2023/10/03 02:33:43;;;;;;;12.27;7.23;;;15.30;99.90;14.60;100290;;;;550968;256;24207;-80
2023/10/03 02:36:14;;;;;;;12.53;6.97;;;15.20;99.90;14.50;100293;;;;551214;256;24185;-80
2023/10/03 02:38:40;;;;;;;12.10;6.63;;;15.20;99.90;14.50;100293;;;;551080;256;24183;-81
2023/10/03 02:41:12;;;;;;;11.20;6.97;;;15.10;99.90;14.50;100291;;;;551379;256;24163;-77
2023/10/03 02:43:38;;;;;;;15.52;8.73;;;15.10;99.90;14.50;100288;;;;548824;255;35750;-79
2023/10/03 02:46:07;;;;;;;12.37;7.37;;;15.10;99.90;14.40;100282;;;;551382;256;24182;-80
2023/10/03 02:48:35;;;;;;;15.98;9.55;;;15.10;99.90;14.50;100284;;;;547208;254;35737;-79
2023/10/03 02:51:02;;;;;;;12.33;7.10;;;15.10;99.90;14.40;100280;;;;553207;255;24189;-80
2023/10/03 02:53:29;;;;;;;13.40;7.70;;;15.10;99.90;14.40;100287;;;;552924;255;24142;-79
2023/10/03 02:55:58;;;;;;;12.33;6.70;;;15.00;99.90;14.40;100281;;;;552466;256;24198;-79
2023/10/03 02:58:26;;;;;;;12.03;6.30;;;15.00;99.90;14.30;100271;;;;552420;255;26343;-79
2023/10/03 03:00:57;;;;;;;11.83;7.40;;;15.00;99.90;14.30;100267;;;;552294;256;24120;-79
2023/10/03 03:03:30;;;;;;;12.70;7.07;;;15.00;99.90;14.30;100258;;;;552485;255;24198;-79
2023/10/03 03:05:53;;;;;;;14.57;6.77;;;14.90;99.90;14.30;100255;;;;559963;256;24145;-79
2023/10/03 03:08:25;;;;;;;15.73;9.88;;;14.90;99.90;14.30;100257;;;;546864;256;35667;-79
2023/10/03 03:10:59;;;;;;;16.50;8.07;;;14.90;99.90;14.30;100257;;;;551897;255;24138;-79
2023/10/03 03:13:26;;;;;;;11.63;7.37;;;14.90;99.90;14.20;100254;;;;551851;255;24191;-78
2023/10/03 03:16:00;;;;;;;10.17;7.00;;;14.90;99.90;14.20;100256;;;;551510;255;24158;-79
2023/10/03 03:18:31;;;;;;;17.43;7.10;;;14.90;99.90;14.20;100247;;;;559704;255;24172;-79
2023/10/03 03:20:58;;;;;;;17.77;7.63;;;14.90;99.90;14.20;100242;;;;551269;256;24238;-80
2023/10/03 03:23:36;;;;;;;10.97;6.77;;;14.90;99.90;14.20;100227;;;;551463;256;24159;-79
2023/10/03 03:26:03;;;;;;;11.07;6.97;;;14.80;99.90;14.10;100231;;;;550428;256;24204;-79
2023/10/03 03:28:24;;;;;;;16.20;9.85;;;14.80;99.90;14.10;100220;;;;546114;256;35654;-77
2023/10/03 03:30:58;;;;;;;11.83;7.37;;;14.80;99.90;14.10;100204;;;;551225;255;24242;-79
2023/10/03 03:33:27;;;;;;;11.73;6.87;;;14.80;99.90;14.10;100207;;;;551376;256;24221;-79
2023/10/03 03:35:58;;;;;;;15.80;7.83;;;14.70;99.90;14.00;100208;;;;551244;256;24168;-78
2023/10/03 03:38:26;;;;;;;16.63;7.33;;;14.70;99.90;14.00;100197;;;;551380;256;24154;-79
2023/10/03 03:40:55;;;;;;;13.57;6.93;;;14.70;99.90;14.00;100195;;;;551358;256;24204;-78
2023/10/03 03:43:26;;;;;;;11.30;6.90;;;14.70;99.90;14.00;100200;;;;550962;256;23187;-79
2023/10/03 03:45:51;;;;;;;8.77;6.30;;;14.70;99.90;14.00;100197;;;;551197;255;24142;-79
2023/10/03 03:48:20;;;;;;;13.43;7.13;;;14.60;99.90;13.90;100189;;;;551020;256;24180;-77
2023/10/03 03:50:45;;;;;;;12.80;6.27;;;14.60;99.90;13.90;100189;;;;551767;256;24168;-79
2023/10/03 03:53:13;;;;;;;13.37;7.13;;;14.60;99.90;13.90;100192;;;;560126;255;24142;-79
2023/10/03 03:55:45;;;;;;;11.43;7.07;;;14.50;99.90;13.80;100188;;;;560033;255;24168;-79
2023/10/03 03:58:17;;;;;;;13.30;6.90;;;14.50;99.90;13.80;100184;;;;561786;255;24173;-80
2023/10/03 04:00:48;;;;;;;18.53;7.27;;;14.50;99.90;13.80;100175;;;;560681;254;24186;-79
2023/10/03 04:03:12;;;;;;;10.37;7.00;;;14.50;99.90;13.80;100180;;;;560944;255;24182;-80
2023/10/03 04:05:37;;;;;;;9.30;7.63;;;14.50;99.90;13.70;100188;;;;560770;254;24144;-80
2023/10/03 04:08:04;;;;;;;11.63;7.20;;;14.40;99.90;13.70;100179;;;;560334;252;24167;-79
2023/10/03 04:10:34;;;;;;;11.37;7.97;;;14.30;99.90;13.70;100181;;;;551867;255;24194;-80
2023/10/03 04:13:04;;;;;;;13.53;8.03;;;14.30;99.90;13.60;100174;;;;551800;256;24212;-79
2023/10/03 04:15:31;;;;;;;12.67;7.27;;;14.30;99.90;13.60;100170;;;;560182;255;24148;-79
2023/10/03 04:17:59;;;;;;;11.87;8.37;;;14.20;99.90;13.60;100167;;;;560080;256;24145;-79
2023/10/03 04:20:35;;;;;;;14.20;7.60;;;14.20;99.90;13.50;100165;;;;560261;256;24223;-79
2023/10/03 04:23:02;;;;;;;11.30;7.47;;;14.20;99.90;13.50;100162;;;;560241;255;24239;-80
2023/10/03 04:25:29;;;;;;;15.30;8.43;;;14.20;99.90;13.50;100166;;;;560060;255;24185;-80
2023/10/03 04:27:59;;;;;;;13.47;7.70;;;14.10;99.90;13.50;100148;;;;560208;251;24149;-79
2023/10/03 04:30:26;;;;;;;12.60;8.83;;;14.20;99.90;13.50;100156;;;;551686;255;24190;-81
2023/10/03 04:32:56;;;;;;;11.43;7.97;;;14.20;99.90;13.50;100150;;;;552032;255;24184;-81
2023/10/03 04:35:24;;;;;;;12.57;7.80;;;14.20;99.90;13.50;100147;;;;551271;256;24146;-79
2023/10/03 04:37:57;;;;;;;15.50;8.80;;;14.10;99.90;13.50;100145;;;;559272;255;24175;-80
2023/10/03 04:40:22;;;;;;;23.20;9.97;;;14.10;99.90;13.40;100145;;;;554028;256;24158;-80
2023/10/03 04:42:54;;;;;;;12.70;8.93;;;14.10;99.90;13.40;100148;;;;559424;255;24171;-80
2023/10/03 04:45:22;;;;;;;11.30;7.60;;;14.10;99.90;13.40;100148;;;;551043;256;24204;-79
2023/10/03 04:47:47;;;;;;;16.17;9.23;;;14.10;99.90;13.50;100140;;;;551700;256;24185;-80
2023/10/03 04:50:18;;;;;;;13.07;7.63;;;14.10;99.90;13.40;100143;;;;551933;255;24172;-80
2023/10/03 04:52:50;;;;;;;14.83;8.27;;;14.10;99.90;13.50;100146;;;;551789;256;24150;-81
2023/10/03 04:55:21;;;;;;;17.07;8.60;;;14.10;99.90;13.50;100145;;;;559954;255;24175;-81
2023/10/03 04:57:49;;;;;;;20.87;8.80;;;14.10;99.90;13.50;100142;;;;553997;256;24176;-80
2023/10/03 05:00:16;;;;;;;16.17;8.03;;;14.10;99.90;13.50;100135;;;;551775;256;24161;-80
2023/10/03 05:02:48;;;;;;;18.23;9.73;;;14.20;99.90;13.60;100132;;;;559914;256;24181;-79
2023/10/03 05:05:12;;;;;;;12.87;8.97;;;14.20;99.90;13.60;100129;;;;551362;256;24150;-79
2023/10/03 05:07:40;;;;;;;13.87;8.93;;;14.30;99.90;13.70;100139;;;;560091;255;24209;-79
2023/10/03 05:10:11;;;;;;;16.50;8.40;;;14.30;99.90;13.70;100131;;;;559652;256;24275;-79
2023/10/03 05:12:37;;;;;;;20.43;8.80;;;14.40;99.90;13.80;100127;;;;554349;256;24227;-79
2023/10/03 05:15:06;;;;;;;14.13;8.53;;;14.40;99.90;13.90;100126;;;;561149;255;24196;-79
2023/10/03 05:17:33;;;;;;;14.33;9.47;;;14.50;99.90;14.00;100116;;;;560379;254;24146;-79
2023/10/03 05:20:02;;;;;;;22.90;9.57;;;14.60;99.90;14.10;100104;;;;552559;255;24224;-81
2023/10/03 05:22:29;;;;;;;16.43;8.53;;;14.70;99.90;14.20;100102;;;;560504;252;24173;-80
2023/10/03 05:24:57;;;;;;;18.77;12.20;;;14.80;99.90;14.30;100088;;;;555479;255;35645;-80
2023/10/03 05:27:24;;;;;;;19.43;10.20;;;14.90;99.90;14.50;100087;;;;552124;255;24200;-79
2023/10/03 05:29:52;;;;;;;18.50;9.87;;;15.00;99.90;14.60;100086;;;;552128;255;25250;-80
2023/10/03 05:32:21;;;;;;;15.67;9.43;;;15.20;99.90;14.70;100089;;;;560331;255;24142;-79
2023/10/03 05:34:51;;;;;;;15.93;9.30;;;15.30;99.90;14.80;100081;;;;552117;255;24135;-80
2023/10/03 05:37:16;;;;;;;19.93;9.23;;;15.40;99.90;15.00;100080;;;;551855;256;24153;-79
2023/10/03 05:39:45;;;;;;;17.00;9.40;;;15.70;99.90;15.10;100084;;;;559856;252;24280;-80
2023/10/03 05:42:13;;;;;;;14.23;8.23;;;15.70;99.90;15.20;100085;;;;559835;256;24183;-80
2023/10/03 05:44:41;;;;;;;16.33;9.20;;;15.80;99.90;15.40;100082;;;;560157;256;24186;-80
2023/10/03 05:47:09;;;;;;;19.47;9.47;;;16.00;99.90;15.50;100080;;;;559803;255;23344;-78
2023/10/03 05:49:37;;;;;;;18.13;8.87;;;16.10;99.90;15.60;100077;;;;563545;251;24172;-76
2023/10/03 05:52:06;;;;;;;15.57;9.47;;;16.20;99.90;15.70;100080;;;;562377;251;24157;-80
2023/10/03 05:54:35;;;;;;;14.80;8.27;;;16.30;99.90;15.80;100085;;;;569583;251;24162;-78
2023/10/03 05:57:02;;;;;;;16.07;7.63;;;16.40;99.90;16.00;100091;;;;553710;251;24161;-79
2023/10/03 05:59:30;;;;;;;13.03;8.07;;;16.60;99.90;16.20;100092;;;;543325;257;24224;-80
2023/10/03 06:01:58;;;;;;;19.50;8.40;;;16.70;99.90;16.50;100086;;;;547974;257;24169;-78
2023/10/03 06:04:26;;;;;;;14.53;8.17;;;17.00;99.90;16.70;100080;;;;550062;252;24275;-78
2023/10/03 06:06:54;;;;;;;15.87;8.73;;;17.30;99.90;17.00;100080;;;;545079;252;24201;-79
2023/10/03 06:09:23;;;;;;;11.93;8.30;;;17.50;99.90;17.70;100074;;;;548331;257;24162;-77
2023/10/03 06:11:49;;;;;;;10.80;7.97;;;18.00;99.90;18.60;100081;;;;548523;257;24161;-78
2023/10/03 06:14:17;;;;;;;12.97;9.50;;;18.90;99.90;19.50;100075;;;;551295;257;24178;-81
2023/10/03 06:16:45;;;;;;;20.03;9.87;;;19.70;99.90;20.10;100074;;;;551128;257;24229;-80
2023/10/03 06:19:14;;;;;;;13.07;9.07;;;20.40;99.90;20.50;100057;;;;551100;257;24171;-78
2023/10/03 06:21:42;;;;;;;19.53;8.50;;;21.00;99.90;21.10;100064;;;;551489;257;24135;-80
2023/10/03 06:24:10;;;;;;;13.17;8.63;;;21.50;99.90;21.90;100058;;;;552298;256;24203;-80
2023/10/03 06:26:38;;;;;;;20.50;9.43;;;22.20;99.90;22.90;100051;;;;552815;255;24188;-81
2023/10/03 06:29:06;;;;;;;12.70;8.40;;;23.20;99.90;23.90;100059;;;;552511;256;24255;-78
2023/10/03 06:31:34;;;;;;;15.33;9.77;;;24.10;99.90;24.40;100058;;;;542752;261;23215;-77
2023/10/03 06:34:03;;;;;;;14.43;8.33;;;24.80;99.90;25.00;100046;;;;552364;256;23201;-78
2023/10/03 06:36:29;;;;;;;13.30;8.80;;;25.40;99.90;25.30;100040;;;;552288;256;23150;-81
2023/10/03 06:38:59;;;;;;;14.27;9.47;;;25.70;99.90;25.90;100033;;;;552295;256;23146;-79
2023/10/03 06:41:26;;;;;;;14.50;9.00;;;26.20;99.90;26.40;100036;;;;551922;256;23216;-79
2023/10/03 06:43:53;;;;;;;15.07;8.73;;;26.80;99.90;26.80;100036;;;;552480;254;23180;-80
2023/10/03 06:46:21;;;;;;;15.70;9.00;;;27.20;99.90;27.60;100030;;;;552983;256;23137;-80
2023/10/03 06:48:53;;;;;;;13.80;8.50;;;27.90;99.90;28.50;100025;;;;552950;255;23128;-82
2023/10/03 06:51:17;;;;;;;14.20;9.07;;;28.70;99.90;29.50;100028;;;;551769;256;23151;-80
2023/10/03 06:53:48;;;;;;;14.23;8.48;;;29.60;99.80;30.40;100025;;;;552565;255;23182;-81
2023/10/03 06:56:15;;;;;;;16.52;8.05;;;30.60;97.20;31.20;100018;;;;542399;260;23242;-83
2023/10/03 06:58:46;;;;;;;10.10;8.00;;;31.50;93.70;32.00;100016;;;;552434;256;23184;-82
2023/10/03 07:01:13;;;;;;;15.03;9.13;;;32.20;91.10;32.60;100014;;;;542106;256;35712;-82
2023/10/03 07:03:41;;;;;;;13.60;8.43;;;33.40;84.10;33.00;100004;;;;551899;256;24190;-81
2023/10/03 07:06:10;;;;;;;14.93;9.55;;;33.80;79.80;33.50;100006;;;;560048;255;23178;-81
2023/10/03 07:08:41;;;;;;;10.55;8.20;;;34.20;76.50;33.80;100000;;;;551876;256;24189;-81
2023/10/03 07:11:14;;;;;;;12.77;8.63;;;34.40;74.60;34.20;99992;;;;551612;255;23189;-80
2023/10/03 07:13:39;;;;;;;13.30;7.93;;;34.40;74.50;34.70;99994;;;;551779;255;23160;-80
2023/10/03 07:16:08;;;;;;;10.02;8.20;;;35.00;72.20;35.40;99990;;;;545260;261;23184;-82
2023/10/03 07:18:35;;;;;;;13.00;9.18;;;35.60;69.40;35.80;99984;;;;543080;261;23208;-82
2023/10/03 07:21:06;;;;;;;14.55;9.70;;;36.10;67.40;36.20;99977;;;;542649;261;23229;-82
2023/10/03 07:23:31;;;;;;;14.38;9.27;;;36.50;65.60;36.70;99976;;;;542913;260;23185;-81
2023/10/03 07:25:59;;;;;;;16.05;8.68;;;36.90;63.10;36.80;99970;;;;543634;261;23193;-81
2023/10/03 07:28:27;;;;;;;10.70;8.43;;;37.20;61.20;36.90;99973;;;;542701;260;24238;-79
2023/10/03 07:30:56;;;;;;;16.00;8.15;;;37.30;60.90;37.00;99971;;;;542339;260;23205;-81
2023/10/03 07:33:24;;;;;;;10.50;7.93;;;37.30;60.00;37.10;99970;;;;552957;251;23134;-82
2023/10/03 07:35:52;;;;;;;15.07;8.05;;;37.60;59.90;37.30;99970;;;;563333;250;23157;-82
2023/10/03 07:38:22;;;;;;;10.90;7.93;;;37.60;58.70;37.50;99976;;;;563614;250;23138;-81
2023/10/03 07:40:51;;;;;;;17.90;7.80;;;38.10;57.20;37.70;99973;;;;560084;251;23233;-82
2023/10/03 07:43:19;;;;;;;8.73;7.45;;;38.10;57.20;37.90;99978;;;;551091;255;23179;-82
2023/10/03 07:45:47;;;;;;;14.15;7.87;;;38.30;56.80;38.10;99970;;;;546526;256;24252;-81
2023/10/03 07:48:16;;;;;;;9.38;7.07;;;38.70;55.70;38.30;99963;;;;542655;261;23182;-82
2023/10/03 07:50:45;;;;;;;11.02;7.32;;;38.70;55.70;38.60;99968;;;;550365;260;23198;-82
2023/10/03 07:53:12;;;;;;;11.50;7.47;;;38.90;55.50;38.80;99963;;;;550138;259;23240;-81
2023/10/03 07:55:43;;;;;;;11.18;6.55;;;39.20;54.90;39.40;99956;;;;542612;261;23209;-83
2023/10/03 07:58:08;;;;;;;9.88;6.70;;;39.60;54.20;39.70;99952;;;;542274;261;23228;-82
2023/10/03 08:00:35;;;;;;;11.48;7.30;;;40.10;53.60;39.90;99945;;;;550369;261;23168;-80
2023/10/03 08:03:08;;;;;;;11.20;7.28;;;40.40;52.60;40.10;99946;;;;542579;261;23188;-82
2023/10/03 08:05:31;;;;;;;10.02;7.32;;;40.50;52.40;40.30;99935;;;;542177;261;23182;-81
2023/10/03 08:08:02;;;;;;;12.80;6.80;;;40.70;51.80;40.40;99922;;;;542528;261;23197;-82
2023/10/03 08:10:29;;;;;;;11.10;7.18;;;40.90;51.20;40.20;99925;;;;542784;256;23211;-81
2023/10/03 08:12:59;;;;;;;8.50;6.85;;;40.80;51.00;40.30;99921;;;;541941;261;23191;-82
2023/10/03 08:15:33;;;;;;;8.50;6.60;;;40.80;51.00;40.70;99928;;;;542387;261;23357;-82
2023/10/03 08:18:00;;;;;;;11.70;6.75;;;41.20;50.80;41.10;99927;;;;550156;261;24215;-82
2023/10/03 08:20:31;;;;;;;11.48;7.15;;;41.60;49.70;41.30;99926;;;;542285;261;24196;-81
2023/10/03 08:23:02;;;;;;;10.98;6.78;;;42.00;49.90;41.70;99926;;;;549542;261;23220;-82
2023/10/03 08:25:28;;;;;;;9.35;6.85;;;42.30;48.90;42.10;99922;;;;549235;256;24214;-83
2023/10/03 08:27:55;;;;;;;10.85;7.22;;;42.80;48.60;42.50;99916;;;;552411;256;23206;-83
2023/10/03 08:30:28;;;;;;;10.88;7.03;;;43.10;48.20;42.80;99916;;;;533862;265;23270;-82
2023/10/03 08:32:58;;;;;;;9.63;6.75;;;43.50;47.50;43.50;99911;;;;556090;254;23163;-81
2023/10/03 08:35:34;;;;;;;9.10;5.97;;;44.10;47.00;44.00;99909;;;;550756;256;23198;-81
2023/10/03 08:37:51;;;;;;;10.18;6.68;;;45.00;45.20;44.20;99900;;;;559422;256;23207;-82
2023/10/03 08:40:22;;;;;;;11.90;6.22;;;45.00;45.20;44.20;99903;;;;551593;256;23143;-82
2023/10/03 08:42:52;;;;;;;7.37;5.82;;;45.10;44.60;44.00;99899;;;;551557;256;23221;-82
2023/10/03 08:45:23;;;;;;;6.68;6.07;;;44.90;44.40;43.70;99895;;;;559543;255;24221;-81
2023/10/03 08:47:54;;;;;;;9.30;6.57;;;44.70;44.10;43.00;99890;;;;553135;256;23146;-81
2023/10/03 08:50:33;;;;;;;9.52;6.07;;;44.20;44.30;42.80;99884;;;;560978;256;23192;-81
2023/10/03 08:53:12;;;;;;;9.13;6.03;;;43.90;45.10;42.80;99882;;;;552282;256;23215;-82
2023/10/03 08:55:27;;;;;;;6.57;5.97;;;43.90;44.90;42.90;99873;;;;552236;256;23155;-81
2023/10/03 08:58:00;;;;;;;9.43;6.30;;;43.90;44.90;42.10;99862;;;;551928;255;23158;-81
2023/10/03 09:00:28;;;;;;;9.25;5.95;;;43.60;44.80;40.90;99862;;;;559546;255;23192;-82
2023/10/03 09:02:51;;;;;;;8.32;7.35;;;42.60;45.10;40.20;99856;;;;559375;251;23135;-81
2023/10/03 09:05:24;;;;;;;10.55;7.07;;;41.70;46.00;39.70;99846;;;;570270;250;23155;-82
2023/10/03 09:07:53;;;;;;;11.80;7.32;;;41.20;46.60;38.30;99830;;;;559911;256;23173;-82
2023/10/03 09:10:26;;;;;;;11.43;7.22;;;38.90;48.90;37.40;99838;;;;551684;255;23168;-85
2023/10/03 09:13:03;;;;;;;14.20;6.93;;;38.90;48.90;37.30;99822;;;;552136;255;23190;-88
2023/10/03 09:15:27;;;;;;;12.82;7.93;;;38.40;49.50;36.90;99818;;;;551284;255;23158;-86
2023/10/03 09:17:53;;;;;;;12.88;6.95;;;38.00;50.00;35.80;99797;;;;551838;256;23193;-87
2023/10/03 09:20:22;;;;;;;17.35;7.10;;;37.10;50.70;34.90;99788;;;;551680;256;23159;-87
2023/10/03 09:22:49;;;;;;;12.68;7.70;;;36.10;52.20;33.70;99788;;;;552335;256;23190;-79
2023/10/03 09:25:21;;;;;;;11.02;6.97;;;35.00;53.50;32.60;99782;;;;554174;256;28473;-90
2023/10/03 09:27:45;;;;;;;11.07;7.25;;;33.90;55.00;32.10;99784;;;;551744;256;23206;-85
2023/10/03 09:30:23;;;;;;;9.10;6.85;;;33.10;56.50;31.60;99776;;;;551405;256;24142;-81
2023/10/03 09:32:41;;;;;;;14.45;6.78;;;32.40;57.40;31.10;99777;;;;550495;256;24218;-80
2023/10/03 09:35:12;;;;;;;19.80;8.02;;;31.90;58.40;30.30;99777;;;;551377;256;23208;-77
2023/10/03 09:37:43;;;;;;;14.65;7.28;;;30.30;60.50;29.50;99774;;;;551422;256;23162;-79
2023/10/03 09:40:16;;;;;;;13.65;7.37;;;29.70;62.60;29.10;99765;;;;551323;256;24296;-77
2023/10/03 09:42:39;;;;;;;13.07;6.37;;;29.70;62.60;28.70;99767;;;;551825;255;23220;-79
2023/10/03 09:45:09;;;;;;;10.13;7.15;;;29.10;64.40;28.60;99747;;;;552258;255;23163;-76
2023/10/03 09:47:35;;;;;;;15.48;6.95;;;29.20;64.60;28.70;99751;;;;551988;255;23154;-78
2023/10/03 09:50:09;;;;;;;15.75;8.20;;;29.10;64.60;28.90;99743;;;;547354;256;35648;-74
2023/10/03 09:52:37;;;;;;;11.73;6.85;;;29.40;64.50;28.90;99750;;;;552053;255;24260;-79
2023/10/03 09:55:49;;;;;;;12.98;7.43;;;29.40;64.50;28.90;99746;;;;552265;255;23154;-81
2023/10/03 09:57:33;;;;;;;10.48;6.18;;;29.40;65.00;29.00;99741;;;;550099;255;23189;-76
2023/10/03 09:59:58;;;;;;;14.40;6.85;;;29.40;65.20;28.90;99735;;;;553452;255;23226;-77
2023/10/03 10:02:35;;;;;;;18.35;7.22;;;29.40;64.80;28.70;99733;;;;553172;256;24157;-76
2023/10/03 10:05:02;;;;;;;20.90;6.75;;;29.20;64.60;28.50;99721;;;;553135;256;23174;-78
2023/10/03 10:07:36;;;;;;;10.32;6.30;;;29.10;65.50;28.40;99714;;;;560771;256;24154;-85
2023/10/03 10:10:16;;;;;;;16.23;7.05;;;28.90;65.30;28.20;99710;;;;552369;255;23218;-80
2023/10/03 10:13:34;;;;;;;13.30;6.35;;;28.70;66.00;28.00;99696;;;;552380;255;23190;-79
2023/10/03 10:16:16;;;;;;;14.48;7.43;;;28.50;66.50;27.90;99689;;;;551134;256;23217;-81
2023/10/03 10:18:46;;;;;;;15.65;6.75;;;28.40;67.30;27.70;99680;;;;561593;255;23149;-85
2023/10/03 10:21:30;;;;;;;12.02;6.97;;;28.20;67.90;27.50;99667;;;;552567;255;23149;-85
2023/10/03 10:24:20;;;;;;;14.07;6.62;;;28.00;68.20;27.20;99660;;;;552493;255;23159;-84
2023/10/03 10:26:48;;;;;;;15.13;7.12;;;27.70;68.60;26.90;99665;;;;550871;256;23187;-81
2023/10/03 10:29:19;;;;;;;13.30;6.80;;;27.40;69.30;26.60;99654;;;;542249;261;24210;-83
2023/10/03 10:31:44;;;;;;;11.90;6.57;;;27.10;70.10;26.40;99655;;;;542592;261;23191;-84
2023/10/03 10:34:22;;;;;;;14.67;7.07;;;27.00;71.00;26.30;99649;;;;542495;261;23187;-83
2023/10/03 10:37:01;;;;;;;16.40;6.37;;;26.60;72.20;26.20;99646;;;;532485;266;23269;-79
2023/10/03 10:39:25;;;;;;;15.37;6.30;;;26.60;72.20;26.00;99641;;;;542283;261;23187;-78
2023/10/03 10:42:14;;;;;;;25.23;7.17;;;26.40;73.00;25.80;99628;;;;548507;256;23251;-79
2023/10/03 10:44:39;;;;;;;27.23;7.20;;;26.30;73.40;25.70;99623;;;;541567;260;23222;-79
2023/10/03 10:47:07;;;;;;;10.47;6.00;;;26.10;73.80;25.70;99616;;;;542145;260;23247;-79
2023/10/03 10:49:36;;;;;;;15.27;6.87;;;26.10;74.30;25.70;99601;;;;542003;261;24222;-78
2023/10/03 10:52:06;;;;;;;18.53;7.50;;;26.10;74.50;25.70;99614;;;;557318;255;23198;-75
2023/10/03 10:54:33;;;;;;;64.47;10.67;;;26.10;75.40;25.70;99596;;;;559620;256;23268;-82
2023/10/03 10:57:03;;;;;;;55.47;10.00;;;26.10;75.40;25.70;99591;;;;541307;262;24186;-75
2023/10/03 10:59:39;;;;;;;12.30;6.17;;;26.10;76.20;25.70;99593;;;;550713;255;23201;-81
2023/10/03 11:02:06;;;;;;;20.23;6.28;;;26.10;78.30;25.60;99580;;;;547978;258;23162;-77
2023/10/03 11:04:34;;;;;;;12.73;6.87;;;26.00;78.30;25.40;99571;;;;545662;258;23209;-82
2023/10/03 11:07:01;;;;;;;13.33;7.07;;;25.80;80.60;25.30;99560;;;;542365;261;24202;-79
2023/10/03 11:09:29;;;;;;;13.83;6.30;;;25.70;79.00;25.40;99548;;;;544430;253;24180;-79
2023/10/03 11:12:03;;;;;;;13.73;6.83;;;25.70;77.10;25.40;99550;;;;552914;254;23180;-80